sensor_id;sensor_type;location;lat;lon;timestamp;P1;durP1;ratioP1;P2;durP2;ratioP2
13356;SDS011;6747;56.456;-3.120;2023-10-09T00:02:21;2.97;;;2.50;;
13356;SDS011;6747;56.456;-3.120;2023-10-09T00:04:48;3.42;;;2.80;;
13356;SDS011;6747;56.456;-3.120;2023-10-09T00:07:16;3.78;;;2.83;;
13356;SDS011;6747;56.456;-3.120;2023-10-09T00:09:49;2.80;;;2.60;;
13356;SDS011;6747;56.456;-3.120;2023-10-09T00:12:21;3.00;;;2.70;;
13356;SDS011;6747;56.456;-3.120;2023-10-09T00:14:50;3.30;;;2.70;;
13356;SDS011;6747;56.456;-3.120;2023-10-09T00:17:20;3.45;;;2.58;;
13356;SDS011;6747;56.456;-3.120;2023-10-09T00:19:49;2.85;;;2.65;;
13356;SDS011;6747;56.456;-3.120;2023-10-09T00:22:20;2.67;;;2.45;;
13356;SDS011;6747;56.456;-3.120;2023-10-09T00:24:52;3.65;;;2.30;;
13356;SDS011;6747;56.456;-3.120;2023-10-09T00:27:38;2.55;;;2.33;;
13356;SDS011;6747;56.456;-3.120;2023-10-09T00:30:08;2.80;;;2.50;;
13356;SDS011;6747;56.456;-3.120;2023-10-09T00:32:40;3.35;;;2.40;;
13356;SDS011;6747;56.456;-3.120;2023-10-09T00:35:19;2.53;;;2.33;;
13356;SDS011;6747;56.456;-3.120;2023-10-09T00:38:03;2.95;;;2.38;;
13356;SDS011;6747;56.456;-3.120;2023-10-09T00:40:39;2.40;;;2.20;;
13356;SDS011;6747;56.456;-3.120;2023-10-09T00:43:13;2.15;;;1.92;;
13356;SDS011;6747;56.456;-3.120;2023-10-09T00:45:41;2.10;;;2.00;;
13356;SDS011;6747;56.456;-3.120;2023-10-09T00:48:10;2.53;;;2.05;;
13356;SDS011;6747;56.456;-3.120;2023-10-09T00:50:47;3.60;;;2.10;;
13356;SDS011;6747;56.456;-3.120;2023-10-09T00:53:18;2.05;;;1.85;;
13356;SDS011;6747;56.456;-3.120;2023-10-09T00:55:56;1.90;;;1.80;;
13356;SDS011;6747;56.456;-3.120;2023-10-09T00:58:33;1.60;;;1.50;;
13356;SDS011;6747;56.456;-3.120;2023-10-09T01:01:01;1.50;;;1.40;;
13356;SDS011;6747;56.456;-3.120;2023-10-09T01:03:30;1.60;;;1.50;;
13356;SDS011;6747;56.456;-3.120;2023-10-09T01:06:00;3.00;;;1.52;;
13356;SDS011;6747;56.456;-3.120;2023-10-09T01:08:41;1.60;;;1.50;;
13356;SDS011;6747;56.456;-3.120;2023-10-09T01:11:14;1.67;;;1.58;;
13356;SDS011;6747;56.456;-3.120;2023-10-09T01:13:48;1.85;;;1.50;;
13356;SDS011;6747;56.456;-3.120;2023-10-09T01:16:23;1.63;;;1.30;;
13356;SDS011;6747;56.456;-3.120;2023-10-09T01:18:51;1.38;;;1.27;;
13356;SDS011;6747;56.456;-3.120;2023-10-09T01:21:22;2.67;;;1.40;;
13356;SDS011;6747;56.456;-3.120;2023-10-09T01:23:52;2.55;;;1.23;;
13356;SDS011;6747;56.456;-3.120;2023-10-09T01:26:33;1.60;;;1.00;;
13356;SDS011;6747;56.456;-3.120;2023-10-09T01:29:04;1.27;;;1.27;;
13356;SDS011;6747;56.456;-3.120;2023-10-09T01:31:36;1.25;;;1.20;;
13356;SDS011;6747;56.456;-3.120;2023-10-09T01:34:09;1.20;;;1.10;;
13356;SDS011;6747;56.456;-3.120;2023-10-09T01:36:37;1.10;;;1.10;;
13356;SDS011;6747;56.456;-3.120;2023-10-09T01:39:08;1.40;;;1.30;;
13356;SDS011;6747;56.456;-3.120;2023-10-09T01:41:48;1.13;;;1.00;;
13356;SDS011;6747;56.456;-3.120;2023-10-09T01:44:17;1.10;;;1.10;;
13356;SDS011;6747;56.456;-3.120;2023-10-09T01:46:45;1.20;;;1.20;;
13356;SDS011;6747;56.456;-3.120;2023-10-09T01:49:13;1.23;;;1.13;;
13356;SDS011;6747;56.456;-3.120;2023-10-09T01:51:46;1.13;;;1.13;;
13356;SDS011;6747;56.456;-3.120;2023-10-09T01:54:17;2.63;;;1.33;;
13356;SDS011;6747;56.456;-3.120;2023-10-09T01:56:59;0.98;;;0.98;;
13356;SDS011;6747;56.456;-3.120;2023-10-09T01:59:31;0.77;;;0.77;;
13356;SDS011;6747;56.456;-3.120;2023-10-09T02:02:01;0.85;;;0.85;;
13356;SDS011;6747;56.456;-3.120;2023-10-09T02:04:39;0.98;;;0.98;;
13356;SDS011;6747;56.456;-3.120;2023-10-09T02:07:07;0.98;;;0.88;;
13356;SDS011;6747;56.456;-3.120;2023-10-09T02:09:36;2.17;;;1.02;;
13356;SDS011;6747;56.456;-3.120;2023-10-09T02:12:12;3.25;;;1.10;;
13356;SDS011;6747;56.456;-3.120;2023-10-09T02:14:39;0.90;;;0.80;;
13356;SDS011;6747;56.456;-3.120;2023-10-09T02:17:09;1.70;;;1.00;;
13356;SDS011;6747;56.456;-3.120;2023-10-09T02:19:43;1.33;;;1.02;;
13356;SDS011;6747;56.456;-3.120;2023-10-09T02:22:13;0.98;;;0.90;;
13356;SDS011;6747;56.456;-3.120;2023-10-09T02:24:43;0.93;;;0.93;;
13356;SDS011;6747;56.456;-3.120;2023-10-09T02:27:23;1.55;;;0.75;;
13356;SDS011;6747;56.456;-3.120;2023-10-09T02:30:19;0.95;;;0.80;;
13356;SDS011;6747;56.456;-3.120;2023-10-09T02:32:54;1.33;;;0.90;;
13356;SDS011;6747;56.456;-3.120;2023-10-09T02:35:32;0.60;;;0.60;;
13356;SDS011;6747;56.456;-3.120;2023-10-09T02:38:07;1.23;;;0.70;;
13356;SDS011;6747;56.456;-3.120;2023-10-09T02:40:41;0.70;;;0.70;;
13356;SDS011;6747;56.456;-3.120;2023-10-09T02:43:33;0.93;;;0.93;;
13356;SDS011;6747;56.456;-3.120;2023-10-09T02:46:09;0.68;;;0.68;;
13356;SDS011;6747;56.456;-3.120;2023-10-09T02:48:40;0.50;;;0.50;;
13356;SDS011;6747;56.456;-3.120;2023-10-09T02:51:12;0.82;;;0.63;;
13356;SDS011;6747;56.456;-3.120;2023-10-09T02:53:47;0.70;;;0.60;;
13356;SDS011;6747;56.456;-3.120;2023-10-09T02:56:18;0.60;;;0.60;;
13356;SDS011;6747;56.456;-3.120;2023-10-09T02:58:49;0.50;;;0.50;;
13356;SDS011;6747;56.456;-3.120;2023-10-09T03:01:17;0.40;;;0.40;;
13356;SDS011;6747;56.456;-3.120;2023-10-09T03:03:45;0.50;;;0.50;;
13356;SDS011;6747;56.456;-3.120;2023-10-09T03:06:14;1.00;;;0.50;;
13356;SDS011;6747;56.456;-3.120;2023-10-09T03:08:50;0.60;;;0.40;;
13356;SDS011;6747;56.456;-3.120;2023-10-09T03:11:21;0.65;;;0.65;;
13356;SDS011;6747;56.456;-3.120;2023-10-09T03:13:51;0.60;;;0.60;;
13356;SDS011;6747;56.456;-3.120;2023-10-09T03:16:20;1.25;;;0.75;;
13356;SDS011;6747;56.456;-3.120;2023-10-09T03:18:47;0.57;;;0.57;;
13356;SDS011;6747;56.456;-3.120;2023-10-09T03:21:16;3.00;;;0.70;;
13356;SDS011;6747;56.456;-3.120;2023-10-09T03:23:45;0.47;;;0.47;;
13356;SDS011;6747;56.456;-3.120;2023-10-09T03:26:15;0.57;;;0.43;;
13356;SDS011;6747;56.456;-3.120;2023-10-09T03:28:46;0.82;;;0.57;;
13356;SDS011;6747;56.456;-3.120;2023-10-09T03:31:13;3.20;;;0.75;;
13356;SDS011;6747;56.456;-3.120;2023-10-09T03:33:41;3.42;;;1.02;;
13356;SDS011;6747;56.456;-3.120;2023-10-09T03:36:08;1.27;;;0.70;;
13356;SDS011;6747;56.456;-3.120;2023-10-09T03:38:36;1.77;;;0.43;;
13356;SDS011;6747;56.456;-3.120;2023-10-09T03:41:04;0.50;;;0.50;;
13356;SDS011;6747;56.456;-3.120;2023-10-09T03:43:32;0.77;;;0.52;;
13356;SDS011;6747;56.456;-3.120;2023-10-09T03:46:05;0.50;;;0.50;;
13356;SDS011;6747;56.456;-3.120;2023-10-09T03:48:40;0.40;;;0.40;;
13356;SDS011;6747;56.456;-3.120;2023-10-09T03:51:11;1.38;;;0.60;;
13356;SDS011;6747;56.456;-3.120;2023-10-09T03:53:46;0.40;;;0.40;;
13356;SDS011;6747;56.456;-3.120;2023-10-09T03:56:14;0.35;;;0.35;;
13356;SDS011;6747;56.456;-3.120;2023-10-09T03:58:43;0.60;;;0.60;;
13356;SDS011;6747;56.456;-3.120;2023-10-09T04:01:13;0.50;;;0.50;;
13356;SDS011;6747;56.456;-3.120;2023-10-09T04:03:48;0.20;;;0.20;;
13356;SDS011;6747;56.456;-3.120;2023-10-09T04:06:20;0.40;;;0.40;;
13356;SDS011;6747;56.456;-3.120;2023-10-09T04:08:48;1.25;;;0.50;;
13356;SDS011;6747;56.456;-3.120;2023-10-09T04:11:17;1.30;;;0.50;;
13356;SDS011;6747;56.456;-3.120;2023-10-09T04:13:48;0.40;;;0.40;;
13356;SDS011;6747;56.456;-3.120;2023-10-09T04:16:18;1.05;;;0.38;;
13356;SDS011;6747;56.456;-3.120;2023-10-09T04:18:59;0.45;;;0.30;;
13356;SDS011;6747;56.456;-3.120;2023-10-09T04:21:31;1.05;;;0.40;;
13356;SDS011;6747;56.456;-3.120;2023-10-09T04:24:01;1.75;;;0.30;;
13356;SDS011;6747;56.456;-3.120;2023-10-09T04:26:52;1.55;;;0.25;;
13356;SDS011;6747;56.456;-3.120;2023-10-09T04:29:23;0.20;;;0.20;;
13356;SDS011;6747;56.456;-3.120;2023-10-09T04:31:55;0.40;;;0.40;;
13356;SDS011;6747;56.456;-3.120;2023-10-09T04:34:26;0.22;;;0.22;;
13356;SDS011;6747;56.456;-3.120;2023-10-09T04:37:00;0.55;;;0.30;;
13356;SDS011;6747;56.456;-3.120;2023-10-09T04:39:45;0.30;;;0.20;;
13356;SDS011;6747;56.456;-3.120;2023-10-09T04:42:13;0.95;;;0.30;;
13356;SDS011;6747;56.456;-3.120;2023-10-09T04:45:02;0.40;;;0.40;;
13356;SDS011;6747;56.456;-3.120;2023-10-09T04:47:47;1.20;;;0.73;;
13356;SDS011;6747;56.456;-3.120;2023-10-09T04:50:31;0.40;;;0.40;;
13356;SDS011;6747;56.456;-3.120;2023-10-09T04:53:13;0.20;;;0.20;;
13356;SDS011;6747;56.456;-3.120;2023-10-09T04:55:49;0.15;;;0.15;;
13356;SDS011;6747;56.456;-3.120;2023-10-09T04:58:29;0.47;;;0.20;;
13356;SDS011;6747;56.456;-3.120;2023-10-09T05:01:04;0.90;;;0.22;;
13356;SDS011;6747;56.456;-3.120;2023-10-09T05:03:42;0.73;;;0.25;;
13356;SDS011;6747;56.456;-3.120;2023-10-09T05:06:09;0.32;;;0.30;;
13356;SDS011;6747;56.456;-3.120;2023-10-09T05:08:47;0.55;;;0.28;;
13356;SDS011;6747;56.456;-3.120;2023-10-09T05:11:14;2.28;;;0.45;;
13356;SDS011;6747;56.456;-3.120;2023-10-09T05:13:59;0.38;;;0.38;;
13356;SDS011;6747;56.456;-3.120;2023-10-09T05:16:38;0.43;;;0.40;;
13356;SDS011;6747;56.456;-3.120;2023-10-09T05:19:20;0.40;;;0.40;;
13356;SDS011;6747;56.456;-3.120;2023-10-09T05:22:08;0.95;;;0.30;;
13356;SDS011;6747;56.456;-3.120;2023-10-09T05:24:42;0.88;;;0.28;;
13356;SDS011;6747;56.456;-3.120;2023-10-09T05:27:12;1.00;;;0.30;;
13356;SDS011;6747;56.456;-3.120;2023-10-09T05:30:06;0.50;;;0.22;;
13356;SDS011;6747;56.456;-3.120;2023-10-09T05:32:50;1.48;;;0.28;;
13356;SDS011;6747;56.456;-3.120;2023-10-09T05:35:22;0.20;;;0.20;;
13356;SDS011;6747;56.456;-3.120;2023-10-09T05:38:05;0.17;;;0.17;;
13356;SDS011;6747;56.456;-3.120;2023-10-09T05:40:40;2.47;;;0.40;;
13356;SDS011;6747;56.456;-3.120;2023-10-09T05:43:09;0.40;;;0.40;;
13356;SDS011;6747;56.456;-3.120;2023-10-09T05:45:56;0.28;;;0.20;;
13356;SDS011;6747;56.456;-3.120;2023-10-09T05:48:33;1.98;;;0.43;;
13356;SDS011;6747;56.456;-3.120;2023-10-09T05:51:35;0.47;;;0.38;;
13356;SDS011;6747;56.456;-3.120;2023-10-09T05:54:08;1.65;;;0.22;;
13356;SDS011;6747;56.456;-3.120;2023-10-09T05:56:49;0.63;;;0.22;;
13356;SDS011;6747;56.456;-3.120;2023-10-09T05:59:34;1.45;;;0.50;;
13356;SDS011;6747;56.456;-3.120;2023-10-09T06:02:15;0.63;;;0.40;;
13356;SDS011;6747;56.456;-3.120;2023-10-09T06:05:00;1.40;;;0.40;;
13356;SDS011;6747;56.456;-3.120;2023-10-09T06:07:31;0.88;;;0.10;;
13356;SDS011;6747;56.456;-3.120;2023-10-09T06:10:27;0.28;;;0.22;;
13356;SDS011;6747;56.456;-3.120;2023-10-09T06:13:04;0.40;;;0.40;;
13356;SDS011;6747;56.456;-3.120;2023-10-09T06:15:36;1.27;;;0.40;;
13356;SDS011;6747;56.456;-3.120;2023-10-09T06:18:34;1.00;;;0.30;;
13356;SDS011;6747;56.456;-3.120;2023-10-09T06:21:06;0.47;;;0.47;;
13356;SDS011;6747;56.456;-3.120;2023-10-09T06:23:56;0.32;;;0.32;;
13356;SDS011;6747;56.456;-3.120;2023-10-09T06:26:39;0.20;;;0.20;;
13356;SDS011;6747;56.456;-3.120;2023-10-09T06:29:16;0.32;;;0.32;;
13356;SDS011;6747;56.456;-3.120;2023-10-09T06:31:59;1.00;;;0.40;;
13356;SDS011;6747;56.456;-3.120;2023-10-09T06:34:42;0.75;;;0.60;;
13356;SDS011;6747;56.456;-3.120;2023-10-09T06:37:10;0.20;;;0.20;;
13356;SDS011;6747;56.456;-3.120;2023-10-09T06:40:01;0.52;;;0.40;;
13356;SDS011;6747;56.456;-3.120;2023-10-09T06:43:08;0.30;;;0.30;;
13356;SDS011;6747;56.456;-3.120;2023-10-09T06:45:42;0.80;;;0.80;;
13356;SDS011;6747;56.456;-3.120;2023-10-09T06:48:20;0.32;;;0.32;;
13356;SDS011;6747;56.456;-3.120;2023-10-09T06:51:06;0.40;;;0.40;;
13356;SDS011;6747;56.456;-3.120;2023-10-09T06:53:38;0.35;;;0.35;;
13356;SDS011;6747;56.456;-3.120;2023-10-09T06:56:25;0.35;;;0.35;;
13356;SDS011;6747;56.456;-3.120;2023-10-09T06:59:12;1.17;;;0.60;;
13356;SDS011;6747;56.456;-3.120;2023-10-09T07:01:42;1.75;;;0.65;;
13356;SDS011;6747;56.456;-3.120;2023-10-09T07:04:11;1.02;;;0.65;;
13356;SDS011;6747;56.456;-3.120;2023-10-09T07:06:44;1.52;;;0.68;;
13356;SDS011;6747;56.456;-3.120;2023-10-09T07:09:16;0.70;;;0.70;;
13356;SDS011;6747;56.456;-3.120;2023-10-09T07:11:46;1.15;;;0.70;;
13356;SDS011;6747;56.456;-3.120;2023-10-09T07:14:29;0.80;;;0.52;;
13356;SDS011;6747;56.456;-3.120;2023-10-09T07:17:12;0.47;;;0.47;;
13356;SDS011;6747;56.456;-3.120;2023-10-09T07:19:52;0.40;;;0.30;;
13356;SDS011;6747;56.456;-3.120;2023-10-09T07:22:35;1.15;;;0.38;;
13356;SDS011;6747;56.456;-3.120;2023-10-09T07:25:16;0.40;;;0.40;;
13356;SDS011;6747;56.456;-3.120;2023-10-09T07:27:54;0.60;;;0.60;;
13356;SDS011;6747;56.456;-3.120;2023-10-09T07:30:25;0.98;;;0.60;;
13356;SDS011;6747;56.456;-3.120;2023-10-09T07:33:05;0.50;;;0.50;;
13356;SDS011;6747;56.456;-3.120;2023-10-09T07:35:42;0.60;;;0.60;;
13356;SDS011;6747;56.456;-3.120;2023-10-09T07:38:15;0.50;;;0.50;;
13356;SDS011;6747;56.456;-3.120;2023-10-09T07:40:45;0.93;;;0.65;;
13356;SDS011;6747;56.456;-3.120;2023-10-09T07:43:23;2.58;;;0.98;;
13356;SDS011;6747;56.456;-3.120;2023-10-09T07:45:54;1.38;;;0.52;;
13356;SDS011;6747;56.456;-3.120;2023-10-09T07:48:44;1.58;;;0.50;;
13356;SDS011;6747;56.456;-3.120;2023-10-09T07:51:17;1.17;;;1.02;;
13356;SDS011;6747;56.456;-3.120;2023-10-09T07:53:51;1.67;;;1.27;;
13356;SDS011;6747;56.456;-3.120;2023-10-09T07:56:22;0.50;;;0.50;;
13356;SDS011;6747;56.456;-3.120;2023-10-09T07:58:55;0.75;;;0.75;;
13356;SDS011;6747;56.456;-3.120;2023-10-09T08:01:25;0.60;;;0.60;;
13356;SDS011;6747;56.456;-3.120;2023-10-09T08:04:01;0.63;;;0.63;;
13356;SDS011;6747;56.456;-3.120;2023-10-09T08:06:36;1.20;;;0.60;;
13356;SDS011;6747;56.456;-3.120;2023-10-09T08:09:07;0.80;;;0.55;;
13356;SDS011;6747;56.456;-3.120;2023-10-09T08:11:52;0.75;;;0.75;;
13356;SDS011;6747;56.456;-3.120;2023-10-09T08:14:38;0.98;;;0.85;;
13356;SDS011;6747;56.456;-3.120;2023-10-09T08:17:11;1.48;;;1.00;;
13356;SDS011;6747;56.456;-3.120;2023-10-09T08:19:41;0.75;;;0.63;;
13356;SDS011;6747;56.456;-3.120;2023-10-09T08:22:23;0.47;;;0.25;;
13356;SDS011;6747;56.456;-3.120;2023-10-09T08:25:07;0.30;;;0.30;;
13356;SDS011;6747;56.456;-3.120;2023-10-09T08:27:51;0.60;;;0.60;;
13356;SDS011;6747;56.456;-3.120;2023-10-09T08:30:24;2.13;;;0.60;;
13356;SDS011;6747;56.456;-3.120;2023-10-09T08:33:23;3.05;;;0.50;;
13356;SDS011;6747;56.456;-3.120;2023-10-09T08:36:09;0.60;;;0.50;;
13356;SDS011;6747;56.456;-3.120;2023-10-09T08:38:40;0.70;;;0.70;;
13356;SDS011;6747;56.456;-3.120;2023-10-09T08:41:08;1.77;;;0.75;;
13356;SDS011;6747;56.456;-3.120;2023-10-09T08:43:47;0.95;;;0.85;;
13356;SDS011;6747;56.456;-3.120;2023-10-09T08:46:18;0.50;;;0.50;;
13356;SDS011;6747;56.456;-3.120;2023-10-09T08:48:47;1.42;;;0.75;;
13356;SDS011;6747;56.456;-3.120;2023-10-09T08:51:16;0.57;;;0.57;;
13356;SDS011;6747;56.456;-3.120;2023-10-09T08:53:45;1.20;;;0.82;;
13356;SDS011;6747;56.456;-3.120;2023-10-09T08:56:12;0.57;;;0.57;;
13356;SDS011;6747;56.456;-3.120;2023-10-09T08:58:47;1.25;;;0.57;;
13356;SDS011;6747;56.456;-3.120;2023-10-09T09:01:16;1.85;;;0.73;;
13356;SDS011;6747;56.456;-3.120;2023-10-09T09:03:48;1.55;;;0.70;;
13356;SDS011;6747;56.456;-3.120;2023-10-09T09:06:17;1.17;;;0.43;;
13356;SDS011;6747;56.456;-3.120;2023-10-09T09:08:46;1.70;;;0.40;;
13356;SDS011;6747;56.456;-3.120;2023-10-09T09:11:13;0.95;;;0.70;;
13356;SDS011;6747;56.456;-3.120;2023-10-09T09:13:43;0.65;;;0.60;;
13356;SDS011;6747;56.456;-3.120;2023-10-09T09:16:15;1.55;;;0.55;;
13356;SDS011;6747;56.456;-3.120;2023-10-09T09:18:51;1.08;;;0.90;;
13356;SDS011;6747;56.456;-3.120;2023-10-09T09:21:26;1.25;;;0.60;;
13356;SDS011;6747;56.456;-3.120;2023-10-09T09:23:54;0.65;;;0.65;;
13356;SDS011;6747;56.456;-3.120;2023-10-09T09:26:32;2.17;;;0.60;;
13356;SDS011;6747;56.456;-3.120;2023-10-09T09:29:03;0.68;;;0.68;;
13356;SDS011;6747;56.456;-3.120;2023-10-09T09:31:33;0.60;;;0.60;;
13356;SDS011;6747;56.456;-3.120;2023-10-09T09:34:08;0.95;;;0.60;;
13356;SDS011;6747;56.456;-3.120;2023-10-09T09:36:51;0.70;;;0.63;;
13356;SDS011;6747;56.456;-3.120;2023-10-09T09:39:22;0.88;;;0.82;;
13356;SDS011;6747;56.456;-3.120;2023-10-09T09:41:54;0.50;;;0.50;;
13356;SDS011;6747;56.456;-3.120;2023-10-09T09:44:30;1.65;;;0.60;;
13356;SDS011;6747;56.456;-3.120;2023-10-09T09:46:59;8.60;;;0.80;;
13356;SDS011;6747;56.456;-3.120;2023-10-09T09:49:33;0.68;;;0.40;;
13356;SDS011;6747;56.456;-3.120;2023-10-09T09:52:03;0.52;;;0.50;;
13356;SDS011;6747;56.456;-3.120;2023-10-09T09:54:35;0.80;;;0.80;;
13356;SDS011;6747;56.456;-3.120;2023-10-09T09:57:03;1.00;;;0.70;;
13356;SDS011;6747;56.456;-3.120;2023-10-09T09:59:37;2.80;;;1.15;;
13356;SDS011;6747;56.456;-3.120;2023-10-09T10:02:19;1.20;;;0.88;;
13356;SDS011;6747;56.456;-3.120;2023-10-09T10:04:50;1.42;;;0.70;;
13356;SDS011;6747;56.456;-3.120;2023-10-09T10:07:19;0.98;;;0.63;;
13356;SDS011;6747;56.456;-3.120;2023-10-09T10:09:48;1.50;;;0.45;;
13356;SDS011;6747;56.456;-3.120;2023-10-09T10:15:13;0.77;;;0.60;;
13356;SDS011;6747;56.456;-3.120;2023-10-09T10:20:25;0.55;;;0.40;;
13356;SDS011;6747;56.456;-3.120;2023-10-09T10:25:44;1.17;;;0.47;;
13356;SDS011;6747;56.456;-3.120;2023-10-09T10:28:15;0.70;;;0.60;;
13356;SDS011;6747;56.456;-3.120;2023-10-09T10:30:53;0.30;;;0.30;;
13356;SDS011;6747;56.456;-3.120;2023-10-09T10:33:25;0.68;;;0.45;;
13356;SDS011;6747;56.456;-3.120;2023-10-09T10:35:54;0.38;;;0.38;;
13356;SDS011;6747;56.456;-3.120;2023-10-09T10:38:23;0.85;;;0.50;;
13356;SDS011;6747;56.456;-3.120;2023-10-09T10:41:07;0.50;;;0.50;;
13356;SDS011;6747;56.456;-3.120;2023-10-09T10:43:37;1.08;;;0.50;;
13356;SDS011;6747;56.456;-3.120;2023-10-09T10:46:20;1.30;;;0.50;;
13356;SDS011;6747;56.456;-3.120;2023-10-09T10:48:55;1.85;;;0.65;;
13356;SDS011;6747;56.456;-3.120;2023-10-09T10:51:27;0.40;;;0.40;;
13356;SDS011;6747;56.456;-3.120;2023-10-09T10:54:02;0.38;;;0.38;;
13356;SDS011;6747;56.456;-3.120;2023-10-09T10:56:44;0.40;;;0.35;;
13356;SDS011;6747;56.456;-3.120;2023-10-09T10:59:14;0.35;;;0.35;;
13356;SDS011;6747;56.456;-3.120;2023-10-09T11:01:48;1.13;;;0.40;;
13356;SDS011;6747;56.456;-3.120;2023-10-09T11:04:24;0.38;;;0.38;;
13356;SDS011;6747;56.456;-3.120;2023-10-09T11:07:05;0.57;;;0.30;;
13356;SDS011;6747;56.456;-3.120;2023-10-09T11:09:44;0.25;;;0.25;;
13356;SDS011;6747;56.456;-3.120;2023-10-09T11:12:26;0.55;;;0.55;;
13356;SDS011;6747;56.456;-3.120;2023-10-09T11:15:03;0.60;;;0.60;;
13356;SDS011;6747;56.456;-3.120;2023-10-09T11:17:34;0.20;;;0.20;;
13356;SDS011;6747;56.456;-3.120;2023-10-09T11:20:04;0.20;;;0.20;;
13356;SDS011;6747;56.456;-3.120;2023-10-09T11:22:50;0.43;;;0.43;;
13356;SDS011;6747;56.456;-3.120;2023-10-09T11:25:31;0.38;;;0.35;;
13356;SDS011;6747;56.456;-3.120;2023-10-09T11:27:59;0.70;;;0.30;;
13356;SDS011;6747;56.456;-3.120;2023-10-09T11:30:45;1.70;;;0.43;;
13356;SDS011;6747;56.456;-3.120;2023-10-09T11:33:13;0.93;;;0.32;;
13356;SDS011;6747;56.456;-3.120;2023-10-09T11:35:40;0.30;;;0.30;;
13356;SDS011;6747;56.456;-3.120;2023-10-09T11:38:10;0.60;;;0.50;;
13356;SDS011;6747;56.456;-3.120;2023-10-09T11:40:46;2.42;;;0.95;;
13356;SDS011;6747;56.456;-3.120;2023-10-09T11:43:44;0.43;;;0.43;;
13356;SDS011;6747;56.456;-3.120;2023-10-09T11:46:16;0.40;;;0.40;;
13356;SDS011;6747;56.456;-3.120;2023-10-09T11:49:06;0.38;;;0.38;;
13356;SDS011;6747;56.456;-3.120;2023-10-09T11:52:06;0.93;;;0.60;;
13356;SDS011;6747;56.456;-3.120;2023-10-09T11:54:52;0.50;;;0.50;;
13356;SDS011;6747;56.456;-3.120;2023-10-09T11:57:22;0.50;;;0.50;;
13356;SDS011;6747;56.456;-3.120;2023-10-09T11:59:56;0.50;;;0.50;;
13356;SDS011;6747;56.456;-3.120;2023-10-09T12:02:24;0.40;;;0.40;;
13356;SDS011;6747;56.456;-3.120;2023-10-09T12:04:51;0.85;;;0.43;;
13356;SDS011;6747;56.456;-3.120;2023-10-09T12:07:21;0.50;;;0.50;;
13356;SDS011;6747;56.456;-3.120;2023-10-09T12:09:48;0.60;;;0.60;;
13356;SDS011;6747;56.456;-3.120;2023-10-09T12:12:23;0.93;;;0.50;;
13356;SDS011;6747;56.456;-3.120;2023-10-09T12:14:52;0.50;;;0.40;;
13356;SDS011;6747;56.456;-3.120;2023-10-09T12:17:19;0.60;;;0.60;;
13356;SDS011;6747;56.456;-3.120;2023-10-09T12:22:56;0.52;;;0.38;;
13356;SDS011;6747;56.456;-3.120;2023-10-09T12:25:24;0.40;;;0.40;;
13356;SDS011;6747;56.456;-3.120;2023-10-09T12:27:53;0.60;;;0.60;;
13356;SDS011;6747;56.456;-3.120;2023-10-09T12:30:22;1.23;;;0.60;;
13356;SDS011;6747;56.456;-3.120;2023-10-09T12:32:53;1.65;;;0.68;;
13356;SDS011;6747;56.456;-3.120;2023-10-09T12:35:22;0.75;;;0.60;;
13356;SDS011;6747;56.456;-3.120;2023-10-09T12:40:53;3.50;;;0.93;;
13356;SDS011;6747;56.456;-3.120;2023-10-09T12:43:35;0.85;;;0.40;;
13356;SDS011;6747;56.456;-3.120;2023-10-09T12:46:07;0.65;;;0.32;;
13356;SDS011;6747;56.456;-3.120;2023-10-09T12:48:34;0.60;;;0.60;;
13356;SDS011;6747;56.456;-3.120;2023-10-09T12:51:02;0.77;;;0.30;;
13356;SDS011;6747;56.456;-3.120;2023-10-09T12:53:31;0.63;;;0.63;;
13356;SDS011;6747;56.456;-3.120;2023-10-09T12:59:04;3.88;;;0.65;;
13356;SDS011;6747;56.456;-3.120;2023-10-09T13:01:32;0.63;;;0.55;;
13356;SDS011;6747;56.456;-3.120;2023-10-09T13:04:07;0.70;;;0.70;;
13356;SDS011;6747;56.456;-3.120;2023-10-09T13:06:37;0.60;;;0.60;;
13356;SDS011;6747;56.456;-3.120;2023-10-09T13:09:09;0.40;;;0.40;;
13356;SDS011;6747;56.456;-3.120;2023-10-09T13:11:36;0.65;;;0.65;;
13356;SDS011;6747;56.456;-3.120;2023-10-09T13:14:07;0.68;;;0.68;;
13356;SDS011;6747;56.456;-3.120;2023-10-09T13:16:42;0.70;;;0.70;;
13356;SDS011;6747;56.456;-3.120;2023-10-09T13:19:09;1.02;;;0.85;;
13356;SDS011;6747;56.456;-3.120;2023-10-09T13:21:37;0.95;;;0.68;;
13356;SDS011;6747;56.456;-3.120;2023-10-09T13:24:06;0.60;;;0.60;;
13356;SDS011;6747;56.456;-3.120;2023-10-09T13:26:38;0.60;;;0.50;;
13356;SDS011;6747;56.456;-3.120;2023-10-09T13:29:08;0.75;;;0.30;;
13356;SDS011;6747;56.456;-3.120;2023-10-09T13:31:37;0.65;;;0.45;;
13356;SDS011;6747;56.456;-3.120;2023-10-09T13:34:12;0.40;;;0.40;;
13356;SDS011;6747;56.456;-3.120;2023-10-09T13:36:41;0.60;;;0.60;;
13356;SDS011;6747;56.456;-3.120;2023-10-09T13:39:15;1.42;;;0.63;;
13356;SDS011;6747;56.456;-3.120;2023-10-09T13:41:48;0.70;;;0.30;;
13356;SDS011;6747;56.456;-3.120;2023-10-09T13:44:20;1.95;;;0.52;;
13356;SDS011;6747;56.456;-3.120;2023-10-09T13:46:47;1.05;;;0.57;;
13356;SDS011;6747;56.456;-3.120;2023-10-09T13:49:15;0.73;;;0.40;;
13356;SDS011;6747;56.456;-3.120;2023-10-09T13:51:43;0.45;;;0.45;;
13356;SDS011;6747;56.456;-3.120;2023-10-09T13:54:11;0.28;;;0.25;;
13356;SDS011;6747;56.456;-3.120;2023-10-09T13:56:46;0.40;;;0.40;;
13356;SDS011;6747;56.456;-3.120;2023-10-09T13:59:19;0.80;;;0.55;;
13356;SDS011;6747;56.456;-3.120;2023-10-09T14:01:48;0.32;;;0.32;;
13356;SDS011;6747;56.456;-3.120;2023-10-09T14:04:16;0.88;;;0.60;;
13356;SDS011;6747;56.456;-3.120;2023-10-09T14:06:44;1.80;;;0.40;;
13356;SDS011;6747;56.456;-3.120;2023-10-09T14:09:12;0.25;;;0.25;;
13356;SDS011;6747;56.456;-3.120;2023-10-09T14:11:54;0.30;;;0.30;;
13356;SDS011;6747;56.456;-3.120;2023-10-09T14:23:12;0.40;;;0.20;;
13356;SDS011;6747;56.456;-3.120;2023-10-09T14:25:45;0.30;;;0.30;;
13356;SDS011;6747;56.456;-3.120;2023-10-09T14:28:15;0.52;;;0.40;;
13356;SDS011;6747;56.456;-3.120;2023-10-09T14:30:44;0.55;;;0.20;;
13356;SDS011;6747;56.456;-3.120;2023-10-09T14:33:15;0.30;;;0.30;;
13356;SDS011;6747;56.456;-3.120;2023-10-09T14:35:48;1.17;;;0.30;;
13356;SDS011;6747;56.456;-3.120;2023-10-09T14:38:18;0.17;;;0.17;;
13356;SDS011;6747;56.456;-3.120;2023-10-09T14:40:52;0.22;;;0.20;;
13356;SDS011;6747;56.456;-3.120;2023-10-09T14:43:25;2.25;;;0.47;;
13356;SDS011;6747;56.456;-3.120;2023-10-09T14:45:58;0.20;;;0.20;;
13356;SDS011;6747;56.456;-3.120;2023-10-09T14:48:25;0.17;;;0.17;;
13356;SDS011;6747;56.456;-3.120;2023-10-09T14:50:54;0.65;;;0.20;;
13356;SDS011;6747;56.456;-3.120;2023-10-09T14:53:31;0.10;;;0.10;;
13356;SDS011;6747;56.456;-3.120;2023-10-09T14:55:59;0.20;;;0.20;;
13356;SDS011;6747;56.456;-3.120;2023-10-09T14:58:28;0.20;;;0.20;;
13356;SDS011;6747;56.456;-3.120;2023-10-09T15:00:58;0.30;;;0.10;;
13356;SDS011;6747;56.456;-3.120;2023-10-09T15:03:36;0.47;;;0.20;;
13356;SDS011;6747;56.456;-3.120;2023-10-09T15:06:03;0.15;;;0.15;;
13356;SDS011;6747;56.456;-3.120;2023-10-09T15:08:37;0.20;;;0.20;;
13356;SDS011;6747;56.456;-3.120;2023-10-09T15:11:05;0.52;;;0.30;;
13356;SDS011;6747;56.456;-3.120;2023-10-09T15:13:32;0.22;;;0.22;;
13356;SDS011;6747;56.456;-3.120;2023-10-09T15:16:00;0.30;;;0.20;;
13356;SDS011;6747;56.456;-3.120;2023-10-09T15:18:28;0.63;;;0.20;;
13356;SDS011;6747;56.456;-3.120;2023-10-09T15:20:58;0.20;;;0.20;;
13356;SDS011;6747;56.456;-3.120;2023-10-09T15:23:26;0.30;;;0.30;;
13356;SDS011;6747;56.456;-3.120;2023-10-09T15:25:54;0.30;;;0.20;;
13356;SDS011;6747;56.456;-3.120;2023-10-09T15:28:22;0.17;;;0.17;;
13356;SDS011;6747;56.456;-3.120;2023-10-09T15:30:53;1.38;;;0.40;;
13356;SDS011;6747;56.456;-3.120;2023-10-09T15:33:20;1.55;;;0.30;;
13356;SDS011;6747;56.456;-3.120;2023-10-09T15:35:48;0.20;;;0.20;;
13356;SDS011;6747;56.456;-3.120;2023-10-09T15:38:16;0.13;;;0.13;;
13356;SDS011;6747;56.456;-3.120;2023-10-09T15:40:44;1.08;;;0.50;;
13356;SDS011;6747;56.456;-3.120;2023-10-09T15:43:14;2.05;;;0.40;;
13356;SDS011;6747;56.456;-3.120;2023-10-09T15:45:43;0.28;;;0.28;;
13356;SDS011;6747;56.456;-3.120;2023-10-09T15:48:13;0.45;;;0.45;;
13356;SDS011;6747;56.456;-3.120;2023-10-09T15:50:44;0.70;;;0.70;;
13356;SDS011;6747;56.456;-3.120;2023-10-09T15:53:13;0.50;;;0.50;;
13356;SDS011;6747;56.456;-3.120;2023-10-09T15:55:43;1.02;;;0.75;;